»·PEaware :: N5132Q KVNY-KBUR

N5132Q :: KVNY-KBUR

FLIGHT INFORMATION

Flight Status: Arrived
Operator: Privately registered:
United States
More flights under this callsign
Pilot: Teerawood T. (27947)
Aircraft: CESSNA 172 SKYHAWK
(C172)
More flights by this aircraft type
Origin: KVNY Van Nuys
United States
Destination: KBUR Bob Hope-Burbank
United States
More flights between these airports :: More routes between these airports
Route: DIRECT
File this flight plan on PilotEdge
Remarks: NO SID NO STAR. ILS PRACTICE. NEW PILOT EDGE PILOT
Altitude:
(Current/Filed)
5,000ft
Speed:
(Current/Filed)
110kts
Departed: 10-Feb-20 10:28 PM
Arrived: 10-Feb-20 10:50 PM
Distance/Time
Traveled:
6nm/0:22
Distance/Time
To Go:
Arrived

Flight Plot

Page will automatically refresh every two minutes.


Map Options




Map Legend


Flown Route
Filed Route
Departure Airport
Arrival Airport
Navaid (VOR, NDB)
Fix

Horizontal Profiles

Position Reports

Time Latitude Longitude Heading Altitude Ground
Speed
10-Feb-20 22:01 34.206231 -118.492712 3 806ft 0kts
10-Feb-20 22:02 34.206576 -118.492133 93 806ft 0kts
10-Feb-20 22:03 34.206576 -118.492132 94 806ft 0kts
10-Feb-20 22:04 34.206576 -118.492132 94 806ft 0kts
10-Feb-20 22:05 34.206576 -118.492132 94 806ft 0kts
10-Feb-20 22:06 34.206576 -118.492132 94 806ft 0kts
10-Feb-20 22:07 34.206576 -118.492132 94 806ft 0kts
10-Feb-20 22:08 34.206576 -118.492132 94 806ft 0kts
10-Feb-20 22:09 34.206576 -118.492132 94 806ft 0kts
10-Feb-20 22:10 34.206576 -118.492132 94 806ft 0kts
10-Feb-20 22:11 34.206576 -118.492132 94 806ft 0kts
10-Feb-20 22:12 34.206576 -118.492132 94 806ft 0kts
10-Feb-20 22:13 34.206576 -118.492132 94 806ft 0kts
10-Feb-20 22:14 34.206576 -118.492132 94 806ft 0kts
10-Feb-20 22:15 34.206576 -118.492132 94 806ft 0kts
10-Feb-20 22:16 34.206576 -118.492132 94 806ft 0kts
10-Feb-20 22:17 34.206576 -118.492132 94 806ft 0kts
10-Feb-20 22:18 34.206576 -118.492132 94 806ft 0kts
10-Feb-20 22:19 34.206576 -118.492132 94 806ft 0kts
10-Feb-20 22:20 34.206570 -118.491634 97 806ft 8kts
10-Feb-20 22:21 34.202883 -118.490835 170 806ft 20kts
10-Feb-20 22:22 34.198884 -118.490167 171 806ft 15kts
10-Feb-20 22:23 34.196963 -118.489892 31 806ft 0kts
10-Feb-20 22:24 34.196963 -118.489892 31 806ft 0kts
10-Feb-20 22:25 34.196963 -118.489892 31 806ft 0kts
10-Feb-20 22:26 34.197056 -118.489747 75 806ft 7kts
10-Feb-20 22:27 34.210919 -118.489772 2 1208ft 79kts
10-Feb-20 22:28 34.220952 -118.506869 262 2139ft 84kts
10-Feb-20 22:29 34.215760 -118.534943 261 3099ft 88kts
10-Feb-20 22:30 34.212812 -118.564152 273 4008ft 89kts
10-Feb-20 22:31 34.220833 -118.593179 286 4404ft 99kts
10-Feb-20 22:32 34.226189 -118.625699 281 4101ft 110kts
10-Feb-20 22:33 34.236263 -118.661624 296 3792ft 117kts
10-Feb-20 22:34 34.250546 -118.695172 286 4017ft 116kts
10-Feb-20 22:35 34.251053 -118.733909 265 4014ft 116kts
10-Feb-20 22:36 34.246721 -118.772188 228 3947ft 121kts
10-Feb-20 22:37 34.223832 -118.761671 107 4047ft 112kts
10-Feb-20 22:38 34.214596 -118.724974 107 4074ft 114kts
10-Feb-20 22:39 34.204376 -118.687932 110 4020ft 118kts
10-Feb-20 22:40 34.200033 -118.649134 97 4010ft 116kts
10-Feb-20 22:41 34.198438 -118.610097 85 3981ft 117kts
10-Feb-20 22:42 34.200692 -118.571016 89 3974ft 116kts
10-Feb-20 22:43 34.199597 -118.532220 89 3502ft 116kts
10-Feb-20 22:44 34.200354 -118.494459 91 2899ft 113kts
10-Feb-20 22:45 34.200254 -118.457269 89 2266ft 110kts
10-Feb-20 22:46 34.198351 -118.422997 91 1521ft 85kts
10-Feb-20 22:47 34.198445 -118.396273 93 1404ft 98kts
10-Feb-20 22:48 34.197830 -118.363846 90 780ft 72kts
10-Feb-20 22:49 34.196836 -118.361112 267 780ft 16kts
10-Feb-20 22:50 34.196449 -118.366530 270 780ft 6kts

Navigation Log

Ident Type
Flight plan parsing failed, navigation log unavailable